Date,TemperatureHighF,TemperatureAvgF,TemperatureLowF,DewpointHighF,DewpointAvgF,DewpointLowF,HumidityHigh,HumidityAvg,HumidityLow,PressureMaxIn,PressureMinIn,WindSpeedMaxMPH,WindSpeedAvgMPH,GustSpeedMaxMPH,PrecipitationSumIn
2012-1-1,63,50,40,45,37,26,70,61,47,30.20,30.10,10,4,11,0.00
2012-1-2,56,49,39,43,32,24,66,53,43,30.33,30.16,5,1,6,0.00
2012-1-3,62,49,41,49,32,24,68,51,41,30.38,30.27,5,1,6,0.00
2012-1-4,66,51,39,48,35,24,69,56,44,30.41,30.29,6,1,7,0.00
2012-1-5,66,45,34,52,28,18,66,52,40,30.33,30.16,8,1,12,0.01
2012-1-6,57,42,32,44,25,16,62,52,41,30.22,30.12,4,0,7,0.02
2012-1-7,68,50,29,43,22,14,59,37,18,30.27,30.15,9,2,13,0.00
2012-1-8,66,46,33,41,29,20,66,53,22,30.25,30.16,5,1,15,0.00
2012-1-9,66,43,28,42,28,16,68,56,37,30.27,30.16,6,1,15,0.00
2012-1-10,64,43,29,44,29,15,68,56,41,30.20,30.08,3,0,4,0.01
2012-1-11,67,43,28,46,27,13,68,53,35,30.15,30.03,7,1,8,0.01
2012-1-12,36,33,30,19,17,15,53,52,51,30.09,30.08,0,0,0,0.00
2012-1-14,40,39,38,24,22,20,53,50,47,30.11,30.09,1,0,2,0.00
2012-1-15,52,43,37,39,27,19,65,53,42,30.19,30.00,16,5,20,0.00
2012-1-16,51,38,26,34,25,14,68,58,37,30.35,30.18,11,2,16,0.00
2012-1-17,50,36,21,37,23,8,68,61,53,30.45,30.34,6,1,16,0.00
2012-1-18,53,41,28,41,27,14,67,56,48,30.43,30.27,5,1,7,0.00
2012-1-19,52,48,41,32,27,23,49,45,42,30.26,30.03,6,2,10,1.53
2012-1-20,58,52,50,36,29,27,58,41,39,30.03,29.69,14,2,22,2.78
2012-1-21,53,48,40,43,35,24,70,62,47,30.15,29.72,18,7,21,0.24
2012-1-22,54,48,40,33,29,24,58,48,43,30.18,29.76,12,4,20,1.06
2012-1-23,56,51,41,45,33,23,67,50,41,30.17,29.60,12,4,18,1.14
2012-1-24,55,48,41,41,30,22,65,51,40,30.44,30.17,7,1,11,0.01
2012-1-25,63,55,50,51,37,30,65,51,39,30.45,30.33,6,2,8,0.00
2012-1-26,57,54,47,34,30,26,44,41,39,30.35,30.24,9,2,12,0.01
2012-1-27,64,48,37,51,31,19,68,51,41,30.30,30.20,9,1,10,0.01
2012-1-28,62,44,31,43,29,16,70,56,44,30.35,30.25,8,1,8,0.01
2012-1-29,65,49,37,48,38,26,84,65,52,30.30,30.13,6,2,9,0.00
2012-1-30,57,50,41,51,46,39,96,88,76,30.14,30.01,8,1,9,0.00
2012-1-31,54,48,42,49,45,40,97,91,81,30.20,30.08,9,2,10,0.00
2012-2-1,58,50,42,52,47,41,98,92,78,30.30,30.18,7,2,12,0.13
2012-2-2,63,49,38,52,45,37,98,87,60,30.26,29.97,7,1,8,0.01
2012-2-3,63,47,38,47,42,36,98,84,38,30.07,29.99,8,1,12,0.01
2012-2-4,64,48,36,44,39,34,96,74,39,30.11,30.05,7,1,9,0.00
2012-2-5,64,51,40,45,40,36,88,67,46,30.12,29.99,6,1,7,0.00
2012-2-6,62,53,42,47,41,38,92,66,44,29.99,29.77,11,3,18,0.12
2012-2-7,54,52,48,50,49,47,95,88,83,30.12,29.77,9,2,10,0.30
2012-2-8,65,51,42,54,47,41,98,87,58,30.26,30.11,5,1,7,0.01
2012-2-9,69,52,40,55,47,39,98,84,49,30.29,30.14,7,2,10,0.00
2012-2-10,59,50,38,56,49,38,98,95,87,30.20,30.07,7,2,12,0.18
2012-2-11,58,51,40,54,49,39,100,93,80,30.08,30.00,8,2,10,0.01
2012-2-12,55,45,36,50,43,36,99,93,75,30.09,29.94,10,2,12,0.29
2012-2-13,56,48,37,47,43,36,97,83,60,30.03,29.90,14,6,18,0.02
2012-2-14,56,44,33,48,41,32,97,87,68,30.12,30.01,13,3,16,0.12
2012-2-15,47,43,40,45,39,36,95,87,81,30.10,30.06,7,3,9,0.00
2012-2-16,43,41,38,41,40,36,97,96,94,30.23,30.21,0,0,0,0.00
2012-2-17,58,47,38,54,45,37,98,92,72,30.28,30.17,12,2,13,0.01
2012-2-18,58,48,37,49,43,33,98,83,54,30.21,30.11,14,4,19,0.01
2012-2-19,54,43,33,43,38,31,95,82,52,30.17,30.06,10,2,13,0.00
2012-2-20,59,49,43,51,47,41,97,91,73,30.23,30.09,7,2,9,0.03
2012-2-21,61,50,43,56,48,43,99,93,77,30.33,30.22,6,1,8,0.01
2012-2-22,70,52,38,58,48,38,99,86,58,30.31,30.11,13,3,18,0.01
2012-2-23,70,54,39,53,46,37,97,76,43,30.11,29.97,9,3,12,0.00
2012-2-24,67,52,40,49,43,36,91,74,35,30.21,29.99,10,3,12,0.00
2012-2-25,59,48,35,43,37,30,91,69,35,30.36,30.20,12,4,19,0.00
2012-2-26,54,40,27,41,34,25,96,79,48,30.22,29.86,10,2,13,0.00
2012-2-27,54,40,26,41,34,25,96,79,55,29.98,29.81,9,2,13,0.01
2012-2-28,52,43,31,48,38,29,95,81,58,30.22,29.99,17,5,22,0.05
2012-2-29,52,47,39,50,44,37,100,90,74,30.25,30.03,16,4,30,0.57
2012-3-1,54,47,37,51,44,36,97,89,72,30.28,30.18,16,6,30,0.10
2012-3-2,64,45,29,43,36,25,98,74,23,30.37,30.28,9,1,11,0.00
2012-3-3,67,48,34,50,40,33,96,74,44,30.36,30.25,9,2,12,0.00
2012-3-4,72,52,38,54,44,36,97,78,41,30.25,30.07,8,2,10,0.00
2012-3-5,55,45,36,51,44,35,98,94,81,30.12,30.01,14,3,19,0.01
2012-3-6,55,48,40,47,35,25,97,63,34,30.10,29.95,17,8,21,0.01
2012-3-7,61,47,36,39,29,20,85,52,21,30.20,30.10,9,2,15,0.00
2012-3-8,65,47,32,52,38,29,97,75,32,30.36,30.20,6,2,9,0.00
2012-3-9,68,47,32,50,40,31,98,79,40,30.36,30.16,8,2,11,0.01
2012-3-10,55,47,35,51,44,34,97,90,82,30.16,30.00,11,4,14,0.01
2012-3-11,56,49,39,51,44,37,96,86,65,30.06,30.01,10,3,15,0.04
2012-3-12,56,47,36,50,43,35,98,86,63,30.06,29.92,10,3,13,0.07
2012-3-13,54,53,52,52,51,49,96,94,87,29.95,29.85,14,10,36,2.05
2012-3-14,58,54,53,55,53,52,97,95,89,30.11,29.94,10,4,36,0.65
2012-3-15,54,54,54,53,53,53,98,97,96,30.12,30.11,2,1,18,0.02
2012-3-16,56,53,47,55,51,45,99,95,89,29.99,29.72,15,5,18,0.34
2012-3-17,54,45,36,47,41,36,99,86,61,29.73,29.51,20,5,26,0.01
2012-3-18,51,45,40,41,37,32,87,74,56,29.95,29.65,18,7,24,0.00
2012-3-19,52,45,36,42,36,31,93,73,44,30.10,29.95,5,2,10,0.00
2012-3-20,58,51,45,52,45,39,93,81,69,30.21,30.10,6,2,8,0.00
2012-3-21,62,54,49,58,52,48,98,93,82,30.19,30.00,8,2,11,0.00
2012-3-22,55,50,41,52,46,36,97,86,64,30.02,29.94,14,5,17,0.00
2012-3-23,57,46,34,46,39,33,97,79,45,30.09,29.87,10,2,12,0.00
2012-3-24,52,45,41,45,42,38,95,89,58,29.92,29.82,13,3,15,0.93
2012-3-25,56,46,42,47,43,38,96,87,57,29.90,29.80,9,2,10,0.13
2012-3-26,55,46,34,47,41,33,98,83,65,30.08,29.91,11,4,22,0.01
2012-3-27,54,53,49,53,50,46,95,91,80,30.01,29.85,16,8,27,0.87
2012-3-28,61,54,46,53,49,44,97,84,57,30.11,29.91,12,4,17,0.02
2012-3-29,58,52,45,53,50,44,98,93,82,30.13,30.06,7,2,11,0.02
2012-3-30,61,56,54,57,54,53,100,94,86,30.09,29.89,10,3,15,0.01
2012-3-31,58,53,46,55,49,43,96,86,68,30.01,29.69,18,9,30,0.64
2012-4-1,56,49,42,49,42,38,90,79,62,30.29,30.02,15,5,19,0.00
2012-4-2,60,48,37,50,44,36,96,87,64,30.29,30.06,10,3,16,0.00
2012-4-3,61,50,42,54,47,40,96,89,68,30.11,30.01,11,3,12,0.03
2012-4-4,55,47,37,46,41,36,96,80,57,30.21,30.11,17,5,23,0.00
2012-4-5,54,44,32,44,37,30,96,78,53,30.20,30.09,19,5,24,0.00
2012-4-6,56,44,31,44,37,30,96,77,48,30.29,30.18,9,2,12,0.00
2012-4-7,63,47,32,48,38,31,96,74,39,30.19,30.04,8,2,9,0.00
2012-4-8,62,47,32,50,42,31,98,83,50,30.09,30.00,10,2,12,0.01
2012-4-9,68,53,44,51,46,36,97,80,31,30.03,29.82,11,2,13,0.00
2012-4-10,56,53,51,53,51,47,96,93,84,29.89,29.81,5,2,9,0.23
2012-4-11,52,51,50,51,50,49,97,97,96,29.82,29.81,2,1,8,0.00
2012-4-12,58,52,45,50,46,40,97,82,53,30.02,29.75,12,5,19,0.96
2012-4-13,55,49,44,48,45,39,96,85,72,29.89,29.71,16,5,19,0.35
2012-4-14,60,50,39,52,44,35,96,82,63,30.13,29.89,12,3,16,0.00
2012-4-15,57,50,42,54,47,41,98,92,81,30.23,30.13,13,3,17,0.00
2012-4-16,58,51,41,53,48,40,97,91,81,30.25,30.18,10,4,16,0.01
2012-4-17,59,52,46,55,51,45,98,94,84,30.20,30.09,11,4,14,0.00
2012-4-18,63,54,45,56,51,44,98,89,69,30.16,30.10,13,5,21,0.00
2012-4-19,68,60,53,62,57,53,98,91,79,30.17,30.06,12,4,18,0.00
2012-4-20,70,60,49,64,55,48,98,85,62,30.08,29.95,10,1,11,0.00
2012-4-21,77,59,47,68,54,45,97,84,62,30.00,29.85,6,1,7,0.00
2012-4-22,59,52,46,57,51,45,98,96,91,29.94,29.88,11,5,15,0.01
2012-4-23,59,56,53,56,54,52,97,92,83,30.01,29.92,7,2,10,0.01
2012-4-24,63,58,56,59,56,54,96,91,81,30.06,29.97,7,2,10,0.07
2012-4-25,65,58,54,60,56,53,100,91,77,30.02,29.77,6,1,9,0.01
2012-4-26,59,54,46,55,49,42,98,85,63,30.21,29.79,15,6,21,0.11
2012-4-27,63,51,38,53,46,36,96,81,63,30.26,30.13,12,3,15,0.00
2012-4-28,67,53,43,58,48,41,96,86,66,30.16,29.88,8,1,11,0.00
2012-4-29,69,55,42,62,51,41,98,88,65,29.93,29.87,8,2,12,0.00
2012-4-30,71,55,45,62,52,44,98,88,68,29.97,29.90,15,4,22,0.00
2012-5-1,62,51,40,52,46,39,98,84,67,29.94,29.85,13,4,20,0.01
2012-5-2,60,49,37,50,44,35,97,84,64,29.97,29.89,13,4,18,0.00
2012-5-3,58,52,44,56,51,42,98,96,90,30.09,29.96,9,3,15,0.15
2012-5-4,60,53,45,52,48,42,98,84,70,30.22,30.09,14,5,22,0.00
2012-5-5,70,54,38,54,47,37,97,80,50,30.24,30.05,10,2,16,0.00
2012-5-6,74,56,39,57,48,38,97,78,42,30.09,30.00,6,1,10,0.00
2012-5-7,73,55,39,64,50,38,100,84,62,30.03,29.95,9,2,10,0.00
2012-5-8,70,55,44,62,51,43,98,88,64,29.98,29.91,7,2,10,0.01
2012-5-9,49,45,42,48,44,42,100,96,93,29.93,29.92,1,0,3,0.00
2012-5-21,61,54,48,57,52,47,98,94,85,30.11,29.99,15,6,20,0.00
2012-5-22,65,55,50,58,52,49,99,91,69,30.13,30.05,13,5,18,0.00
2012-5-23,66,56,44,54,49,43,97,78,57,30.06,29.92,14,4,20,0.00
2012-5-24,66,54,42,54,46,39,94,78,61,29.94,29.75,16,6,21,0.00
2012-5-25,64,56,44,52,47,42,94,74,59,29.84,29.73,12,5,19,0.00
2012-5-26,63,52,39,54,48,38,97,85,69,30.07,29.83,13,4,19,0.00
2012-5-27,62,52,39,54,48,38,100,87,72,30.15,30.06,11,3,17,0.00
2012-5-28,51,51,50,49,49,48,94,93,92,30.07,30.07,2,1,2,0.00
2012-5-29,66,54,42,55,49,41,98,84,63,30.07,30.01,7,2,0,0.00
2012-5-30,70,55,44,59,50,43,98,85,61,30.10,30.01,7,2,0,0.00
2012-5-31,61,52,50,53,49,48,95,92,76,29.88,29.86,5,0,8,0.00
2012-6-1,73,60,45,61,54,44,98,82,62,29.86,29.74,8,3,11,0.00
2012-6-2,70,58,50,60,54,48,97,85,65,29.94,29.82,15,7,21,0.01
2012-6-3,65,56,46,56,51,46,98,85,66,29.95,29.89,12,4,17,0.00
2012-6-4,61,56,48,56,52,46,97,89,71,30.11,29.88,17,5,23,0.08
2012-6-5,64,54,44,50,46,42,97,76,55,30.19,30.11,16,5,22,0.00
2012-6-6,67,54,38,50,45,37,97,75,50,30.14,29.95,12,4,20,0.00
2012-6-7,70,57,41,57,50,40,96,79,53,30.02,29.96,14,5,20,0.00
2012-6-8,68,56,43,51,47,42,97,73,47,30.00,29.91,14,5,18,0.00
2012-6-9,81,59,39,52,45,24,94,63,12,30.01,29.87,11,3,16,0.00
2012-6-10,84,63,43,51,45,36,90,58,18,29.90,29.86,8,2,13,0.00
2012-6-11,78,60,43,58,50,42,96,71,39,29.95,29.89,7,1,10,0.00
2012-6-12,80,60,45,60,52,44,95,76,49,29.97,29.89,14,5,18,0.00
2012-6-13,75,59,48,57,51,46,98,78,52,29.90,29.73,6,2,12,0.00
2012-6-14,50,48,46,47,46,44,94,92,89,29.77,29.76,1,0,12,0.00
2012-6-17,68,58,51,58,53,50,97,85,68,29.92,29.87,11,6,17,0.00
2012-6-18,62,54,47,53,50,45,97,87,70,29.92,29.80,8,3,17,0.00
2012-6-19,66,55,42,54,49,40,97,81,63,29.94,29.83,9,3,13,0.00
2012-6-20,79,59,43,59,50,42,97,77,42,29.85,29.79,9,2,14,0.00
2012-6-21,62,54,47,53,50,45,97,87,71,29.95,29.80,16,6,24,0.00
2012-6-22,62,54,47,57,52,45,97,94,79,29.98,29.87,7,3,13,0.04
2012-6-23,63,55,48,53,50,47,100,85,61,29.95,29.86,10,4,16,0.00
2012-6-24,65,54,40,54,48,39,98,82,52,30.05,29.93,11,4,16,0.00
2012-6-25,66,56,43,55,51,42,98,84,59,30.09,30.03,11,3,16,0.02
2012-6-26,71,57,41,54,49,40,100,77,49,30.07,29.90,13,4,17,0.01
2012-6-27,75,58,40,55,49,38,97,77,46,29.94,29.88,9,2,12,0.00
2012-6-28,69,57,43,56,51,42,98,83,58,30.07,29.94,12,5,17,0.00
2012-6-29,67,59,53,58,55,52,100,89,72,30.10,30.02,12,6,16,0.00
2012-6-30,70,61,54,63,58,54,98,90,75,30.03,29.93,12,6,20,0.00
2012-7-1,69,62,54,61,58,52,97,87,74,29.96,29.85,10,5,15,0.00
2012-7-2,74,60,51,60,54,49,98,82,58,29.90,29.82,10,3,14,0.00
2012-7-3,78,61,46,57,51,44,97,73,45,29.90,29.79,5,2,9,0.00
2012-7-4,69,57,45,56,50,44,97,80,57,29.86,29.81,9,3,13,0.00
2012-7-5,68,55,43,55,50,42,97,83,60,29.97,29.86,12,3,19,0.00
2012-7-6,71,57,46,56,51,45,98,82,57,30.02,29.95,8,2,11,0.00
2012-7-7,73,56,41,57,50,40,98,83,50,30.00,29.94,9,2,13,0.00
2012-7-8,68,56,50,56,52,49,98,87,63,30.03,29.96,12,3,14,0.01
2012-7-9,70,57,50,57,52,48,98,85,58,30.05,29.93,7,2,11,0.00
2012-7-10,74,58,49,57,52,48,98,82,53,29.97,29.84,8,2,11,0.01
2012-7-11,75,59,47,59,52,45,98,80,53,29.89,29.81,10,3,14,0.00
2012-7-12,71,58,50,57,52,48,98,83,59,29.85,29.77,8,2,13,0.00
2012-7-13,64,56,47,54,52,45,98,86,70,29.91,29.83,14,4,19,0.00
2012-7-14,69,56,52,57,53,51,97,88,64,29.95,29.88,10,2,14,0.00
2012-7-15,63,55,51,56,53,50,98,91,76,29.93,29.85,11,4,18,0.00
2012-7-16,62,55,52,54,52,51,98,91,71,29.91,29.82,10,4,17,0.00
2012-7-17,62,55,52,54,53,50,98,95,75,30.00,29.90,4,2,10,0.08
2012-7-18,67,58,49,56,53,47,98,86,66,30.03,29.97,11,3,18,0.01
2012-7-19,69,59,52,58,55,52,98,88,66,30.04,29.98,11,4,18,0.00
2012-7-20,78,62,52,61,55,51,98,80,48,30.09,29.97,8,2,12,0.01
2012-7-21,82,63,47,60,54,46,97,76,43,29.99,29.87,8,2,10,0.00
2012-7-22,74,60,47,59,53,46,98,80,54,29.91,29.83,9,3,13,0.01
2012-7-23,74,60,48,58,53,47,97,80,53,29.95,29.88,13,4,17,0.00
2012-7-24,68,60,56,56,54,52,91,81,64,29.98,29.93,10,3,14,0.00
2012-7-25,68,60,54,56,54,52,93,82,65,30.01,29.95,9,3,15,0.00
2012-7-26,65,57,52,55,53,51,96,87,70,30.01,29.95,9,4,11,0.00
2012-7-27,67,56,51,58,53,50,97,90,70,30.02,29.97,9,3,15,0.00
2012-7-28,76,60,51,57,54,50,100,83,51,30.05,29.96,11,3,15,0.00
2012-7-29,73,59,48,58,53,47,98,82,54,30.04,29.94,8,2,10,0.00
2012-7-30,77,60,47,59,53,46,98,81,51,29.99,29.88,8,2,12,0.01
2012-7-31,77,59,43,58,51,42,97,79,50,29.98,29.91,10,2,12,0.00
2012-8-1,67,55,43,57,51,42,98,87,66,30.07,29.97,8,3,12,0.01
2012-8-2,67,55,47,58,52,46,98,89,65,30.01,29.89,8,3,13,0.01
2012-8-3,65,56,51,56,52,50,97,90,71,29.91,29.83,10,4,14,0.00
2012-8-4,62,56,50,57,54,49,98,93,81,29.98,29.84,8,3,13,0.00
2012-8-5,64,59,56,60,57,55,98,91,80,30.08,29.96,10,4,13,0.02
2012-8-6,71,61,51,58,55,50,95,83,57,30.13,30.03,9,3,11,0.00
2012-8-7,76,60,49,59,52,48,98,79,46,30.06,29.96,10,3,14,0.01
2012-8-8,78,59,40,56,50,39,97,76,45,30.01,29.90,7,2,9,0.00
2012-8-9,79,58,42,57,50,41,98,78,40,29.94,29.82,7,2,11,0.01
2012-8-10,72,56,42,57,50,41,98,82,53,29.86,29.74,8,2,12,0.00
2012-8-11,73,55,45,58,50,44,98,86,53,29.85,29.75,8,3,12,0.01
2012-8-12,68,55,48,55,51,48,99,87,60,29.88,29.80,8,3,10,0.00
2012-8-13,72,56,48,55,51,48,98,85,55,29.87,29.79,9,4,12,0.00
2012-8-14,68,57,50,57,53,49,98,89,64,29.84,29.79,9,5,13,0.00
2012-8-15,56,55,55,55,54,54,97,97,97,29.83,29.82,5,3,9,0.00
2012-8-16,56,55,53,54,53,52,97,95,93,29.95,29.93,6,4,0,0.00
2012-8-17,54,53,52,53,52,51,98,97,97,30.01,29.96,5,2,0,0.00
2012-8-18,53,52,52,51,50,50,95,94,91,29.93,29.92,1,0,6,0.00
2012-8-19,68,56,50,56,52,50,98,87,63,29.97,29.89,13,2,16,0.00
2012-8-20,71,56,49,56,52,49,98,87,59,29.94,29.84,11,2,15,0.00
2012-8-21,70,58,50,57,53,50,98,83,61,29.93,29.82,8,2,13,0.00
2012-8-22,67,56,50,57,52,49,98,90,67,29.94,29.86,9,2,14,0.00
2012-8-23,67,56,51,58,53,50,98,91,68,29.96,29.85,9,2,14,0.00
2012-8-24,66,54,50,56,52,49,98,91,68,29.92,29.85,10,3,13,0.00
2012-8-25,61,54,50,54,51,50,98,93,74,29.90,29.81,8,2,12,0.00
2012-8-26,67,58,51,54,52,50,96,80,58,29.98,29.83,13,6,19,0.00
2012-8-27,74,59,45,60,53,44,98,83,60,30.05,29.95,12,3,15,0.00
2012-8-28,79,61,44,58,51,43,98,74,38,30.03,29.93,12,3,18,0.00
2012-8-29,83,59,42,56,49,40,100,74,33,29.95,29.79,10,2,12,0.00
2012-8-30,69,53,40,56,49,39,98,88,62,29.83,29.77,10,3,13,0.00
2012-8-31,63,55,47,54,52,45,96,88,72,29.94,29.82,16,3,19,0.00
2012-9-1,70,55,46,57,52,45,100,89,62,30.04,29.94,10,2,13,0.00
2012-9-2,78,57,44,59,51,44,99,83,46,30.00,29.90,10,2,12,0.00
2012-9-3,74,56,42,56,50,41,98,82,52,29.98,29.91,8,3,10,0.00
2012-9-4,66,56,50,55,52,49,98,89,65,30.03,29.97,10,3,14,0.00
2012-9-5,63,55,51,56,52,51,98,92,74,30.01,29.93,9,3,12,0.00
2012-9-6,64,56,52,53,51,50,95,83,65,30.03,29.96,9,3,14,0.00
2012-9-7,68,58,50,52,50,48,93,78,54,30.10,30.01,10,3,17,0.00
2012-9-8,67,56,48,55,51,47,98,84,63,30.07,29.94,12,3,17,0.00
2012-9-9,74,56,42,55,49,42,98,80,47,30.00,29.86,15,3,18,0.00
2012-9-10,73,57,46,58,50,45,98,82,51,29.93,29.81,8,2,11,0.00
2012-9-11,71,55,43,56,51,42,98,86,60,29.96,29.83,12,3,17,0.00
2012-9-12,67,57,51,56,54,50,97,89,69,30.08,29.95,10,4,14,0.00
2012-9-13,69,56,49,56,52,49,99,88,59,30.11,30.02,11,4,16,0.00
2012-9-14,66,57,52,56,53,50,97,88,69,30.11,30.01,10,4,14,0.00
2012-9-15,66,55,50,56,51,48,98,89,64,30.11,30.00,7,2,10,0.00
2012-9-16,64,54,49,56,51,49,99,90,69,30.06,29.99,10,4,12,0.00
2012-9-17,63,55,50,53,50,48,94,85,68,30.07,30.00,10,4,13,0.00
2012-9-18,66,55,47,53,50,45,100,85,60,30.12,30.01,11,4,16,0.00
2012-9-19,69,54,46,57,50,44,98,87,57,30.12,30.02,12,2,18,0.00
2012-9-20,70,55,44,57,49,42,100,82,53,30.08,29.96,10,2,11,0.00
2012-9-21,73,55,36,53,46,35,98,77,40,30.01,29.87,7,1,10,0.00
2012-9-22,47,45,42,46,44,41,96,95,93,29.92,29.91,1,0,2,0.00
2012-9-23,74,59,50,54,51,48,97,78,44,29.98,29.93,12,4,13,0.00
2012-9-24,66,56,52,56,53,50,97,90,68,29.98,29.89,11,3,13,0.00
2012-9-25,60,52,46,57,51,46,99,94,81,29.94,29.85,9,3,12,0.00
2012-9-26,66,54,50,56,52,49,99,91,69,29.91,29.85,8,2,11,0.00
2012-9-27,78,56,49,59,51,49,99,88,50,29.94,29.85,9,3,15,0.00
2012-9-28,61,53,48,55,52,48,99,95,79,29.98,29.88,9,4,12,0.00
2012-9-29,67,54,47,57,51,46,99,90,64,30.04,29.96,8,2,12,0.00
2012-9-30,49,49,49,49,49,48,98,98,98,30.03,30.03,2,2,0,0.00
2012-10-1,76,62,54,48,46,43,70,57,31,29.91,29.89,4,0,13,0.00
2012-10-2,99,67,47,52,45,36,86,56,12,29.89,29.77,11,2,13,0.00
2012-10-3,81,60,47,58,52,44,95,78,35,30.00,29.80,14,4,17,0.00
2012-10-4,65,59,54,56,55,51,91,84,71,30.13,30.00,8,4,13,0.00
2012-10-5,69,60,52,58,55,50,97,85,64,30.15,30.07,11,3,16,0.00
2012-10-6,68,58,52,57,54,51,99,87,59,30.08,29.97,11,4,13,0.00
2012-10-7,68,56,50,57,52,49,99,89,61,30.02,29.95,13,3,16,0.05
2012-10-8,66,54,40,56,50,39,98,87,67,30.05,29.99,10,3,15,0.01
2012-10-9,70,55,47,58,51,46,99,87,56,30.04,29.94,8,2,12,0.01
2012-10-10,53,51,48,52,50,47,98,97,95,29.96,29.95,2,0,3,0.00
2012-10-11,57,55,53,53,52,51,95,90,84,29.96,29.87,7,3,10,0.00
2012-10-12,62,56,46,53,51,44,96,85,67,30.24,29.94,6,1,8,0.00
2012-10-13,71,56,41,59,51,41,98,87,57,30.31,30.17,12,3,14,0.01
2012-10-14,71,58,53,61,56,52,99,92,69,30.22,30.07,10,2,18,0.01
2012-10-15,76,62,49,62,56,49,99,83,53,30.10,29.94,10,2,13,0.00
2012-10-16,80,66,53,66,59,51,97,81,57,30.00,29.85,14,4,20,0.00
2012-10-17,86,60,41,56,46,34,98,67,17,29.92,29.81,7,1,10,0.00
2012-10-18,88,65,44,61,48,38,90,61,23,30.02,29.87,10,2,18,0.00
2012-10-19,69,62,54,61,58,54,97,90,73,30.06,29.92,7,2,10,0.00
2012-10-20,54,53,52,54,52,51,99,98,97,29.93,29.88,1,0,2,0.00
2012-10-21,61,42,38,49,39,36,97,91,40,29.93,29.84,6,0,0,0.02
2012-10-22,61,54,48,53,50,46,97,87,64,29.93,29.71,9,2,17,1.01
2012-10-23,62,52,45,53,46,43,98,84,52,30.06,29.92,6,1,10,0.04
2012-10-24,62,56,49,55,51,46,97,85,57,30.20,30.00,9,1,13,0.03
2012-10-25,68,56,47,54,50,45,96,83,49,30.27,30.19,9,2,13,0.05
2012-10-26,73,56,41,56,48,40,100,79,36,30.24,30.09,7,1,8,0.08
2012-10-27,78,60,47,60,54,46,98,82,51,30.10,29.94,9,1,10,0.00
2012-10-28,76,57,47,62,54,46,99,89,56,30.03,29.95,10,1,11,0.00
2012-10-29,76,56,47,63,53,46,100,91,51,30.12,30.02,11,1,13,0.01
2012-10-30,64,54,48,61,53,48,99,97,83,30.08,29.97,10,1,11,0.02
2012-10-31,61,58,56,58,57,56,99,97,83,30.01,29.96,7,1,9,0.70
2012-11-1,65,58,46,60,56,46,98,93,73,30.07,29.98,10,2,11,0.16
2012-11-2,65,51,40,57,48,40,99,91,59,30.10,30.03,7,1,7,0.01
2012-11-3,73,58,48,56,52,47,98,82,51,30.15,30.06,8,1,10,0.00
2012-11-4,77,59,47,60,54,46,98,83,53,30.21,30.12,6,1,7,0.00
2012-11-5,81,65,50,60,56,49,98,76,44,30.14,30.03,7,1,10,0.00
2012-11-6,81,63,51,59,55,49,97,78,44,30.07,29.99,6,1,9,0.00
2012-11-7,57,54,50,56,53,48,99,97,93,30.05,29.91,4,1,7,0.01
2012-11-8,56,49,38,51,44,36,95,84,68,29.94,29.88,11,2,14,0.07
2012-11-9,56,45,35,46,41,34,98,87,61,30.00,29.90,11,2,16,0.05
2012-11-10,57,44,32,45,39,31,98,84,48,30.26,29.99,12,2,16,0.00
2012-11-11,59,43,30,44,38,29,98,83,44,30.39,30.26,5,0,6,0.01
2012-11-12,63,48,37,44,39,35,96,74,36,30.39,30.26,6,1,7,0.00
2012-11-13,67,51,39,52,43,36,93,76,47,30.28,30.09,4,0,7,0.00
2012-11-14,69,55,44,54,48,41,92,79,56,30.13,30.01,5,1,8,0.00
2012-11-15,68,57,50,53,50,44,93,78,47,30.02,29.94,8,2,10,0.00
2012-11-16,54,53,52,51,50,49,91,90,86,29.99,29.96,0,0,2,0.00
2012-11-17,61,56,50,58,55,49,98,95,82,30.01,29.77,11,4,19,0.70
2012-11-18,58,50,40,52,48,39,98,90,69,30.17,30.01,5,1,16,0.24
2012-11-19,62,57,52,56,53,50,94,85,74,30.22,30.14,7,2,11,0.37
2012-11-20,61,59,57,59,58,56,97,95,92,30.14,29.98,13,6,17,0.36
2012-11-21,62,56,43,58,52,42,98,89,70,30.21,30.02,9,2,13,0.27
2012-11-22,63,48,37,53,44,36,98,87,64,30.27,30.18,7,1,9,0.15
2012-11-23,67,51,38,54,45,37,100,84,54,30.28,30.17,5,1,6,0.09
2012-11-24,67,51,39,56,47,37,98,88,62,30.20,30.04,5,0,7,0.06
2012-11-25,65,50,43,57,48,43,99,93,73,30.04,29.93,4,0,5,0.01
2012-11-26,65,50,40,56,48,39,99,94,68,30.08,29.98,7,1,8,0.01
2012-11-27,60,55,50,53,51,49,97,87,72,30.11,29.98,5,1,7,0.00
2012-11-28,61,56,54,58,53,50,97,90,79,30.02,29.79,11,3,18,1.11
2012-11-29,62,60,56,60,57,53,95,89,76,30.02,29.79,18,9,30,0.90
2012-11-30,61,59,55,60,58,54,98,94,89,29.98,29.75,18,8,34,2.07
2012-12-1,62,59,57,61,58,56,97,95,91,30.01,29.83,16,6,22,0.36
2012-12-2,62,55,44,61,52,43,97,89,66,30.11,29.69,24,7,38,0.68
2012-12-3,61,50,38,51,46,37,99,89,70,30.21,30.10,6,1,8,0.01
2012-12-4,58,54,51,56,52,49,98,93,82,30.22,30.12,5,1,6,0.09
2012-12-5,61,58,56,60,58,56,100,98,97,30.16,30.08,4,1,6,0.64
2012-12-6,59,52,41,56,50,41,99,92,78,30.15,30.07,6,1,7,0.00
2012-12-7,59,45,35,53,43,34,100,92,74,30.16,30.07,4,0,5,0.00
2012-12-8,59,45,34,52,43,33,99,93,74,30.14,30.05,5,0,5,0.00
2012-12-9,65,49,37,55,45,36,99,87,61,30.19,30.10,6,1,7,0.01
2012-12-10,66,50,39,56,46,38,100,87,63,30.25,30.11,5,0,6,0.00
2012-12-11,52,46,38,51,44,37,99,95,86,30.11,29.84,8,1,10,0.00
2012-12-12,54,46,36,49,42,34,99,88,70,29.91,29.83,9,2,11,0.00
2012-12-13,37,35,34,36,34,33,97,96,95,29.91,29.90,1,0,2,0.00
2012-12-14,54,46,38,45,41,36,96,83,58,30.00,29.85,5,1,5,0.00
2012-12-15,46,43,33,44,42,33,98,95,91,30.08,29.98,10,4,13,0.00
2012-12-16,55,48,44,54,47,43,99,96,92,30.10,29.99,9,2,13,0.62
2012-12-17,57,52,39,56,49,36,97,91,79,30.05,29.96,10,4,18,0.19
2012-12-18,52,41,31,41,32,29,94,74,43,30.21,30.01,11,2,18,0.00
2012-12-19,52,38,27,37,32,25,95,77,51,30.33,30.20,4,0,5,0.00
2012-12-20,56,48,40,50,42,32,94,77,68,30.21,29.95,12,6,18,0.21
2012-12-21,55,53,52,53,51,50,97,92,87,29.95,29.82,15,6,24,1.74
2012-12-22,56,51,47,52,47,44,95,85,67,30.04,29.80,16,5,24,0.51
2012-12-23,58,52,43,56,50,42,96,94,89,30.04,29.81,22,6,32,1.43
2012-12-24,55,45,36,48,42,35,99,90,68,30.22,30.01,4,0,4,0.02
2012-12-25,46,44,39,45,42,38,98,95,86,30.15,29.77,9,3,12,1.05
2012-12-26,55,48,42,49,44,40,98,87,72,30.11,29.85,12,4,17,0.20
2012-12-27,56,46,39,47,42,38,100,83,62,30.17,30.10,4,1,8,0.00
2012-12-28,48,43,37,42,40,36,100,91,78,30.18,30.04,6,2,9,0.23
2012-12-29,56,46,37,45,41,36,96,84,54,30.09,30.01,8,1,12,0.07
2012-12-30,54,42,32,45,38,31,98,88,66,30.20,30.06,7,1,10,0.01
2012-12-31,53,42,32,45,38,30,96,86,52,30.31,30.19,5,1,10,0.01
2013-1-1,56,42,34,41,36,31,97,79,39,30.29,30.20,8,1,8,0.00